sensor_id;sensor_type;location;lat;lon;timestamp;P1;durP1;ratioP1;P2;durP2;ratioP2
6723;SDS011;3399;52.530;13.304;2023-04-01T00:00:17;2.70;;;2.50;;
6723;SDS011;3399;52.530;13.304;2023-04-01T00:02:42;3.33;;;1.70;;
6723;SDS011;3399;52.530;13.304;2023-04-01T00:05:09;1.87;;;1.63;;
6723;SDS011;3399;52.530;13.304;2023-04-01T00:07:35;2.53;;;1.80;;
6723;SDS011;3399;52.530;13.304;2023-04-01T00:10:05;1.80;;;1.70;;
6723;SDS011;3399;52.530;13.304;2023-04-01T00:12:32;2.33;;;1.87;;
6723;SDS011;3399;52.530;13.304;2023-04-01T00:14:58;2.37;;;1.57;;
6723;SDS011;3399;52.530;13.304;2023-04-01T00:17:24;5.53;;;1.67;;
6723;SDS011;3399;52.530;13.304;2023-04-01T00:19:50;2.17;;;1.37;;
6723;SDS011;3399;52.530;13.304;2023-04-01T00:22:15;2.27;;;1.50;;
6723;SDS011;3399;52.530;13.304;2023-04-01T00:24:41;2.90;;;1.67;;
6723;SDS011;3399;52.530;13.304;2023-04-01T00:27:07;2.67;;;1.83;;
6723;SDS011;3399;52.530;13.304;2023-04-01T00:29:33;2.77;;;1.33;;
6723;SDS011;3399;52.530;13.304;2023-04-01T00:31:59;3.03;;;1.77;;
6723;SDS011;3399;52.530;13.304;2023-04-01T00:34:24;1.87;;;1.57;;
6723;SDS011;3399;52.530;13.304;2023-04-01T00:36:50;2.77;;;1.90;;
6723;SDS011;3399;52.530;13.304;2023-04-01T00:39:17;4.63;;;2.57;;
6723;SDS011;3399;52.530;13.304;2023-04-01T00:41:42;6.70;;;1.97;;
6723;SDS011;3399;52.530;13.304;2023-04-01T00:44:14;2.40;;;1.63;;
6723;SDS011;3399;52.530;13.304;2023-04-01T00:46:47;2.40;;;1.60;;
6723;SDS011;3399;52.530;13.304;2023-04-01T00:49:13;2.90;;;1.87;;
6723;SDS011;3399;52.530;13.304;2023-04-01T00:51:39;2.17;;;1.77;;
6723;SDS011;3399;52.530;13.304;2023-04-01T00:54:06;2.67;;;1.80;;
6723;SDS011;3399;52.530;13.304;2023-04-01T00:56:37;2.90;;;1.73;;
6723;SDS011;3399;52.530;13.304;2023-04-01T00:59:07;3.00;;;1.90;;
6723;SDS011;3399;52.530;13.304;2023-04-01T01:01:36;2.10;;;1.93;;
6723;SDS011;3399;52.530;13.304;2023-04-01T01:04:02;2.10;;;1.70;;
6723;SDS011;3399;52.530;13.304;2023-04-01T01:09:30;3.47;;;2.63;;
6723;SDS011;3399;52.530;13.304;2023-04-01T01:12:20;6.27;;;2.03;;
6723;SDS011;3399;52.530;13.304;2023-04-01T01:17:32;3.07;;;1.50;;
6723;SDS011;3399;52.530;13.304;2023-04-01T01:23:31;2.80;;;1.90;;
6723;SDS011;3399;52.530;13.304;2023-04-01T01:31:42;5.10;;;3.23;;
6723;SDS011;3399;52.530;13.304;2023-04-01T01:34:40;3.47;;;1.90;;
6723;SDS011;3399;52.530;13.304;2023-04-01T01:37:17;2.37;;;1.87;;
6723;SDS011;3399;52.530;13.304;2023-04-01T01:39:48;3.63;;;2.50;;
6723;SDS011;3399;52.530;13.304;2023-04-01T01:42:19;5.97;;;1.87;;
6723;SDS011;3399;52.530;13.304;2023-04-01T01:44:47;4.87;;;2.30;;
6723;SDS011;3399;52.530;13.304;2023-04-01T01:47:15;3.93;;;2.23;;
6723;SDS011;3399;52.530;13.304;2023-04-01T01:49:43;1.73;;;1.57;;
6723;SDS011;3399;52.530;13.304;2023-04-01T01:52:10;3.07;;;1.67;;
6723;SDS011;3399;52.530;13.304;2023-04-01T01:54:46;3.87;;;2.37;;
6723;SDS011;3399;52.530;13.304;2023-04-01T01:57:12;1.40;;;1.30;;
6723;SDS011;3399;52.530;13.304;2023-04-01T01:59:39;2.70;;;1.80;;
6723;SDS011;3399;52.530;13.304;2023-04-01T02:02:07;4.83;;;1.37;;
6723;SDS011;3399;52.530;13.304;2023-04-01T02:04:36;2.77;;;1.40;;
6723;SDS011;3399;52.530;13.304;2023-04-01T02:07:05;1.60;;;1.40;;
6723;SDS011;3399;52.530;13.304;2023-04-01T02:09:35;3.93;;;1.90;;
6723;SDS011;3399;52.530;13.304;2023-04-01T02:12:03;1.73;;;1.63;;
6723;SDS011;3399;52.530;13.304;2023-04-01T02:14:40;4.27;;;2.40;;
6723;SDS011;3399;52.530;13.304;2023-04-01T02:17:11;3.90;;;1.63;;
6723;SDS011;3399;52.530;13.304;2023-04-01T02:19:41;3.23;;;1.97;;
6723;SDS011;3399;52.530;13.304;2023-04-01T02:22:13;4.07;;;1.80;;
6723;SDS011;3399;52.530;13.304;2023-04-01T02:24:42;1.93;;;1.53;;
6723;SDS011;3399;52.530;13.304;2023-04-01T02:27:10;3.13;;;1.40;;
6723;SDS011;3399;52.530;13.304;2023-04-01T02:29:36;3.23;;;2.00;;
6723;SDS011;3399;52.530;13.304;2023-04-01T02:32:02;3.03;;;1.87;;
6723;SDS011;3399;52.530;13.304;2023-04-01T02:34:29;2.77;;;1.57;;
6723;SDS011;3399;52.530;13.304;2023-04-01T02:36:55;2.20;;;1.33;;
6723;SDS011;3399;52.530;13.304;2023-04-01T02:39:22;5.77;;;4.53;;
6723;SDS011;3399;52.530;13.304;2023-04-01T02:41:47;9.07;;;5.60;;
6723;SDS011;3399;52.530;13.304;2023-04-01T02:44:14;4.70;;;4.20;;
6723;SDS011;3399;52.530;13.304;2023-04-01T02:46:40;5.90;;;4.17;;
6723;SDS011;3399;52.530;13.304;2023-04-01T02:49:06;4.97;;;3.67;;
6723;SDS011;3399;52.530;13.304;2023-04-01T02:51:32;5.07;;;3.07;;
6723;SDS011;3399;52.530;13.304;2023-04-01T02:53:58;4.37;;;2.63;;
6723;SDS011;3399;52.530;13.304;2023-04-01T02:56:23;4.23;;;3.27;;
6723;SDS011;3399;52.530;13.304;2023-04-01T02:58:48;3.67;;;2.90;;
6723;SDS011;3399;52.530;13.304;2023-04-01T03:01:15;5.10;;;2.83;;
6723;SDS011;3399;52.530;13.304;2023-04-01T03:03:41;4.80;;;2.10;;
6723;SDS011;3399;52.530;13.304;2023-04-01T03:06:10;5.20;;;2.10;;
6723;SDS011;3399;52.530;13.304;2023-04-01T03:08:37;5.47;;;2.30;;
6723;SDS011;3399;52.530;13.304;2023-04-01T03:11:03;4.20;;;3.10;;
6723;SDS011;3399;52.530;13.304;2023-04-01T03:13:30;4.63;;;1.80;;
6723;SDS011;3399;52.530;13.304;2023-04-01T03:15:55;4.97;;;2.50;;
6723;SDS011;3399;52.530;13.304;2023-04-01T03:18:21;2.77;;;1.90;;
6723;SDS011;3399;52.530;13.304;2023-04-01T03:20:46;4.27;;;2.23;;
6723;SDS011;3399;52.530;13.304;2023-04-01T03:23:12;5.23;;;2.47;;
6723;SDS011;3399;52.530;13.304;2023-04-01T03:25:37;3.37;;;1.90;;
6723;SDS011;3399;52.530;13.304;2023-04-01T03:28:03;3.80;;;1.83;;
6723;SDS011;3399;52.530;13.304;2023-04-01T03:30:29;3.10;;;2.10;;
6723;SDS011;3399;52.530;13.304;2023-04-01T03:33:00;4.13;;;2.20;;
6723;SDS011;3399;52.530;13.304;2023-04-01T03:35:25;3.57;;;2.10;;
6723;SDS011;3399;52.530;13.304;2023-04-01T03:37:51;3.73;;;2.50;;
6723;SDS011;3399;52.530;13.304;2023-04-01T03:40:17;2.53;;;1.33;;
6723;SDS011;3399;52.530;13.304;2023-04-01T03:42:43;3.90;;;2.10;;
6723;SDS011;3399;52.530;13.304;2023-04-01T03:45:09;5.70;;;2.20;;
6723;SDS011;3399;52.530;13.304;2023-04-01T03:47:37;2.73;;;1.53;;
6723;SDS011;3399;52.530;13.304;2023-04-01T03:50:03;4.37;;;1.90;;
6723;SDS011;3399;52.530;13.304;2023-04-01T03:52:29;3.97;;;1.93;;
6723;SDS011;3399;52.530;13.304;2023-04-01T03:54:55;2.20;;;1.83;;
6723;SDS011;3399;52.530;13.304;2023-04-01T03:57:21;4.73;;;2.07;;
6723;SDS011;3399;52.530;13.304;2023-04-01T03:59:46;3.67;;;2.30;;
6723;SDS011;3399;52.530;13.304;2023-04-01T04:02:12;5.60;;;1.90;;
6723;SDS011;3399;52.530;13.304;2023-04-01T04:04:37;3.90;;;1.70;;
6723;SDS011;3399;52.530;13.304;2023-04-01T04:07:03;3.50;;;1.80;;
6723;SDS011;3399;52.530;13.304;2023-04-01T04:09:30;5.87;;;2.30;;
6723;SDS011;3399;52.530;13.304;2023-04-01T04:11:56;3.97;;;1.83;;
6723;SDS011;3399;52.530;13.304;2023-04-01T04:14:22;3.37;;;2.00;;
6723;SDS011;3399;52.530;13.304;2023-04-01T04:16:48;6.00;;;2.20;;
6723;SDS011;3399;52.530;13.304;2023-04-01T04:19:13;3.93;;;2.10;;
6723;SDS011;3399;52.530;13.304;2023-04-01T04:21:39;2.20;;;1.87;;
6723;SDS011;3399;52.530;13.304;2023-04-01T04:24:05;3.90;;;2.30;;
6723;SDS011;3399;52.530;13.304;2023-04-01T04:26:31;3.37;;;2.23;;
6723;SDS011;3399;52.530;13.304;2023-04-01T04:28:56;4.80;;;2.50;;
6723;SDS011;3399;52.530;13.304;2023-04-01T04:31:22;5.70;;;1.97;;
6723;SDS011;3399;52.530;13.304;2023-04-01T04:33:49;3.63;;;1.77;;
6723;SDS011;3399;52.530;13.304;2023-04-01T04:36:16;2.23;;;2.03;;
6723;SDS011;3399;52.530;13.304;2023-04-01T04:38:42;3.90;;;2.20;;
6723;SDS011;3399;52.530;13.304;2023-04-01T04:41:08;3.57;;;2.47;;
6723;SDS011;3399;52.530;13.304;2023-04-01T04:43:36;3.50;;;2.07;;
6723;SDS011;3399;52.530;13.304;2023-04-01T04:46:06;4.53;;;2.43;;
6723;SDS011;3399;52.530;13.304;2023-04-01T04:48:32;8.97;;;2.33;;
6723;SDS011;3399;52.530;13.304;2023-04-01T04:50:58;4.53;;;1.97;;
6723;SDS011;3399;52.530;13.304;2023-04-01T04:53:23;2.83;;;2.07;;
6723;SDS011;3399;52.530;13.304;2023-04-01T04:55:50;6.07;;;2.40;;
6723;SDS011;3399;52.530;13.304;2023-04-01T04:58:16;4.13;;;2.17;;
6723;SDS011;3399;52.530;13.304;2023-04-01T05:00:41;4.23;;;3.03;;
6723;SDS011;3399;52.530;13.304;2023-04-01T05:03:07;4.00;;;2.53;;
6723;SDS011;3399;52.530;13.304;2023-04-01T05:05:34;3.33;;;2.27;;
6723;SDS011;3399;52.530;13.304;2023-04-01T05:08:00;8.30;;;2.77;;
6723;SDS011;3399;52.530;13.304;2023-04-01T05:10:25;5.23;;;2.30;;
6723;SDS011;3399;52.530;13.304;2023-04-01T05:12:51;2.93;;;2.17;;
6723;SDS011;3399;52.530;13.304;2023-04-01T05:15:16;3.47;;;2.60;;
6723;SDS011;3399;52.530;13.304;2023-04-01T05:17:42;3.97;;;2.23;;
6723;SDS011;3399;52.530;13.304;2023-04-01T05:20:08;3.47;;;2.20;;
6723;SDS011;3399;52.530;13.304;2023-04-01T05:22:33;5.77;;;2.83;;
6723;SDS011;3399;52.530;13.304;2023-04-01T05:24:59;3.13;;;2.63;;
6723;SDS011;3399;52.530;13.304;2023-04-01T05:27:24;6.53;;;3.23;;
6723;SDS011;3399;52.530;13.304;2023-04-01T05:29:50;4.53;;;2.90;;
6723;SDS011;3399;52.530;13.304;2023-04-01T05:32:15;3.97;;;2.50;;
6723;SDS011;3399;52.530;13.304;2023-04-01T05:34:41;4.97;;;2.90;;
6723;SDS011;3399;52.530;13.304;2023-04-01T05:37:07;3.57;;;2.80;;
6723;SDS011;3399;52.530;13.304;2023-04-01T05:39:35;6.87;;;2.83;;
6723;SDS011;3399;52.530;13.304;2023-04-01T05:42:02;5.93;;;2.93;;
6723;SDS011;3399;52.530;13.304;2023-04-01T05:44:28;6.37;;;3.37;;
6723;SDS011;3399;52.530;13.304;2023-04-01T05:46:53;4.97;;;3.07;;
6723;SDS011;3399;52.530;13.304;2023-04-01T05:49:19;3.90;;;2.87;;
6723;SDS011;3399;52.530;13.304;2023-04-01T05:51:44;4.43;;;2.37;;
6723;SDS011;3399;52.530;13.304;2023-04-01T05:54:10;5.67;;;2.50;;
6723;SDS011;3399;52.530;13.304;2023-04-01T05:56:35;4.90;;;3.27;;
6723;SDS011;3399;52.530;13.304;2023-04-01T05:59:01;8.07;;;2.63;;
6723;SDS011;3399;52.530;13.304;2023-04-01T06:01:26;2.87;;;2.27;;
6723;SDS011;3399;52.530;13.304;2023-04-01T06:03:52;4.73;;;2.40;;
6723;SDS011;3399;52.530;13.304;2023-04-01T06:06:24;3.90;;;2.17;;
6723;SDS011;3399;52.530;13.304;2023-04-01T06:08:52;5.80;;;2.80;;
6723;SDS011;3399;52.530;13.304;2023-04-01T06:11:23;5.47;;;2.87;;
6723;SDS011;3399;52.530;13.304;2023-04-01T06:20:08;6.23;;;2.70;;
6723;SDS011;3399;52.530;13.304;2023-04-01T06:22:49;5.30;;;2.37;;
6723;SDS011;3399;52.530;13.304;2023-04-01T06:25:42;4.40;;;2.37;;
6723;SDS011;3399;52.530;13.304;2023-04-01T06:28:29;5.50;;;2.60;;
6723;SDS011;3399;52.530;13.304;2023-04-01T06:39:13;5.50;;;2.17;;
6723;SDS011;3399;52.530;13.304;2023-04-01T06:42:15;4.07;;;2.00;;
6723;SDS011;3399;52.530;13.304;2023-04-01T06:45:06;8.80;;;2.60;;
6723;SDS011;3399;52.530;13.304;2023-04-01T06:50:30;8.23;;;2.57;;
6723;SDS011;3399;52.530;13.304;2023-04-01T06:56:02;4.47;;;2.07;;
6723;SDS011;3399;52.530;13.304;2023-04-01T06:59:06;4.43;;;1.93;;
6723;SDS011;3399;52.530;13.304;2023-04-01T07:01:32;3.40;;;2.37;;
6723;SDS011;3399;52.530;13.304;2023-04-01T07:04:26;5.43;;;1.97;;
6723;SDS011;3399;52.530;13.304;2023-04-01T07:07:02;4.10;;;2.20;;
6723;SDS011;3399;52.530;13.304;2023-04-01T07:09:36;4.07;;;2.20;;
6723;SDS011;3399;52.530;13.304;2023-04-01T07:12:29;6.33;;;1.97;;
6723;SDS011;3399;52.530;13.304;2023-04-01T07:15:05;5.60;;;2.50;;
6723;SDS011;3399;52.530;13.304;2023-04-01T07:17:43;5.00;;;2.43;;
6723;SDS011;3399;52.530;13.304;2023-04-01T07:20:13;4.87;;;2.27;;
6723;SDS011;3399;52.530;13.304;2023-04-01T07:22:45;5.77;;;2.67;;
6723;SDS011;3399;52.530;13.304;2023-04-01T07:25:14;6.07;;;2.17;;
6723;SDS011;3399;52.530;13.304;2023-04-01T07:27:43;5.07;;;2.30;;
6723;SDS011;3399;52.530;13.304;2023-04-01T07:30:14;5.20;;;2.20;;
6723;SDS011;3399;52.530;13.304;2023-04-01T07:35:30;6.00;;;2.57;;
6723;SDS011;3399;52.530;13.304;2023-04-01T07:38:28;2.80;;;1.57;;
6723;SDS011;3399;52.530;13.304;2023-04-01T07:41:18;6.27;;;2.37;;
6723;SDS011;3399;52.530;13.304;2023-04-01T07:44:09;4.07;;;1.97;;
6723;SDS011;3399;52.530;13.304;2023-04-01T07:46:45;4.07;;;1.80;;
6723;SDS011;3399;52.530;13.304;2023-04-01T07:52:06;4.63;;;2.23;;
6723;SDS011;3399;52.530;13.304;2023-04-01T07:54:45;7.07;;;2.73;;
6723;SDS011;3399;52.530;13.304;2023-04-01T07:57:21;3.70;;;1.80;;
6723;SDS011;3399;52.530;13.304;2023-04-01T08:05:47;17.63;;;14.70;;
6723;SDS011;3399;52.530;13.304;2023-04-01T08:08:36;2.30;;;2.10;;
6723;SDS011;3399;52.530;13.304;2023-04-01T08:11:35;4.60;;;2.60;;
6723;SDS011;3399;52.530;13.304;2023-04-01T08:14:15;3.93;;;2.40;;
6723;SDS011;3399;52.530;13.304;2023-04-01T08:16:58;5.63;;;2.63;;
6723;SDS011;3399;52.530;13.304;2023-04-01T08:19:52;3.87;;;3.03;;
6723;SDS011;3399;52.530;13.304;2023-04-01T08:22:41;2.07;;;1.97;;
6723;SDS011;3399;52.530;13.304;2023-04-01T08:25:23;2.60;;;2.40;;
6723;SDS011;3399;52.530;13.304;2023-04-01T08:27:53;1.87;;;1.73;;
6723;SDS011;3399;52.530;13.304;2023-04-01T08:31:00;2.83;;;2.60;;
6723;SDS011;3399;52.530;13.304;2023-04-01T08:33:32;3.70;;;2.30;;
6723;SDS011;3399;52.530;13.304;2023-04-01T08:36:12;2.27;;;1.87;;
6723;SDS011;3399;52.530;13.304;2023-04-01T08:41:34;2.37;;;2.17;;
6723;SDS011;3399;52.530;13.304;2023-04-01T08:44:31;1.93;;;1.77;;
6723;SDS011;3399;52.530;13.304;2023-04-01T08:58:47;3.13;;;2.83;;
6723;SDS011;3399;52.530;13.304;2023-04-01T09:01:54;3.43;;;3.10;;
6723;SDS011;3399;52.530;13.304;2023-04-01T09:04:25;4.77;;;4.27;;
6723;SDS011;3399;52.530;13.304;2023-04-01T09:10:18;5.33;;;4.80;;
6723;SDS011;3399;52.530;13.304;2023-04-01T09:13:13;5.83;;;4.87;;
6723;SDS011;3399;52.530;13.304;2023-04-01T09:16:13;5.33;;;4.83;;
6723;SDS011;3399;52.530;13.304;2023-04-01T09:18:56;6.73;;;5.37;;
6723;SDS011;3399;52.530;13.304;2023-04-01T09:38:06;11.00;;;8.07;;
6723;SDS011;3399;52.530;13.304;2023-04-01T09:40:55;9.43;;;8.43;;
6723;SDS011;3399;52.530;13.304;2023-04-01T09:46:15;8.80;;;7.90;;
6723;SDS011;3399;52.530;13.304;2023-04-01T10:00:22;9.60;;;8.57;;
6723;SDS011;3399;52.530;13.304;2023-04-01T10:06:16;8.80;;;7.90;;
6723;SDS011;3399;52.530;13.304;2023-04-01T10:14:27;10.23;;;9.23;;
6723;SDS011;3399;52.530;13.304;2023-04-01T10:23:08;11.53;;;10.03;;
6723;SDS011;3399;52.530;13.304;2023-04-01T10:26:03;9.90;;;9.00;;
6723;SDS011;3399;52.530;13.304;2023-04-01T10:40:44;9.43;;;8.50;;
6723;SDS011;3399;52.530;13.304;2023-04-01T10:43:23;10.07;;;9.07;;
6723;SDS011;3399;52.530;13.304;2023-04-01T10:49:20;8.20;;;7.40;;
6723;SDS011;3399;52.530;13.304;2023-04-01T11:00:28;7.63;;;7.03;;
6723;SDS011;3399;52.530;13.304;2023-04-01T11:06:11;8.30;;;7.50;;
6723;SDS011;3399;52.530;13.304;2023-04-01T11:11:57;8.07;;;7.37;;
6723;SDS011;3399;52.530;13.304;2023-04-01T11:14:45;8.70;;;7.80;;
6723;SDS011;3399;52.530;13.304;2023-04-01T11:20:44;6.93;;;6.17;;
6723;SDS011;3399;52.530;13.304;2023-04-01T11:24:08;6.03;;;5.53;;
6723;SDS011;3399;52.530;13.304;2023-04-01T11:26:39;7.87;;;7.07;;
6723;SDS011;3399;52.530;13.304;2023-04-01T11:29:26;7.73;;;7.03;;
6723;SDS011;3399;52.530;13.304;2023-04-01T11:40:04;7.47;;;6.87;;
6723;SDS011;3399;52.530;13.304;2023-04-01T11:45:41;7.30;;;6.70;;
6723;SDS011;3399;52.530;13.304;2023-04-01T11:57:36;8.80;;;8.00;;
6723;SDS011;3399;52.530;13.304;2023-04-01T12:03:10;9.13;;;8.33;;
6723;SDS011;3399;52.530;13.304;2023-04-01T12:08:59;11.40;;;10.43;;
6723;SDS011;3399;52.530;13.304;2023-04-01T12:11:43;11.07;;;9.47;;
6723;SDS011;3399;52.530;13.304;2023-04-01T12:14:27;10.07;;;9.20;;
6723;SDS011;3399;52.530;13.304;2023-04-01T12:17:26;10.70;;;9.70;;
6723;SDS011;3399;52.530;13.304;2023-04-01T12:26:15;9.20;;;8.40;;
6723;SDS011;3399;52.530;13.304;2023-04-01T12:32:19;9.50;;;8.50;;
6723;SDS011;3399;52.530;13.304;2023-04-01T12:35:12;10.43;;;9.47;;
6723;SDS011;3399;52.530;13.304;2023-04-01T12:37:58;10.87;;;9.90;;
6723;SDS011;3399;52.530;13.304;2023-04-01T12:40:44;10.57;;;9.57;;
6723;SDS011;3399;52.530;13.304;2023-04-01T12:48:58;8.77;;;8.07;;
6723;SDS011;3399;52.530;13.304;2023-04-01T12:51:53;9.43;;;8.53;;
6723;SDS011;3399;52.530;13.304;2023-04-01T12:57:43;8.37;;;7.67;;
6723;SDS011;3399;52.530;13.304;2023-04-01T13:03:28;10.17;;;9.27;;
6723;SDS011;3399;52.530;13.304;2023-04-01T13:14:26;11.13;;;10.03;;
6723;SDS011;3399;52.530;13.304;2023-04-01T13:17:12;11.57;;;10.37;;
6723;SDS011;3399;52.530;13.304;2023-04-01T13:19:54;12.43;;;10.97;;
6723;SDS011;3399;52.530;13.304;2023-04-01T13:22:41;12.30;;;11.20;;
6723;SDS011;3399;52.530;13.304;2023-04-01T13:35:57;10.33;;;9.43;;
6723;SDS011;3399;52.530;13.304;2023-04-01T13:44:29;10.17;;;9.27;;
6723;SDS011;3399;52.530;13.304;2023-04-01T13:47:21;10.70;;;9.70;;
6723;SDS011;3399;52.530;13.304;2023-04-01T14:01:10;6.00;;;5.50;;
6723;SDS011;3399;52.530;13.304;2023-04-01T14:04:12;5.27;;;4.77;;
6723;SDS011;3399;52.530;13.304;2023-04-01T14:07:08;5.80;;;5.30;;
6723;SDS011;3399;52.530;13.304;2023-04-01T14:12:49;5.03;;;4.63;;
6723;SDS011;3399;52.530;13.304;2023-04-01T14:15:33;5.03;;;4.23;;
6723;SDS011;3399;52.530;13.304;2023-04-01T14:18:13;5.37;;;4.60;;
6723;SDS011;3399;52.530;13.304;2023-04-01T14:20:57;5.60;;;5.00;;
6723;SDS011;3399;52.530;13.304;2023-04-01T14:29:21;5.20;;;4.80;;
6723;SDS011;3399;52.530;13.304;2023-04-01T14:32:11;5.07;;;4.47;;
6723;SDS011;3399;52.530;13.304;2023-04-01T14:35:09;4.77;;;4.33;;
6723;SDS011;3399;52.530;13.304;2023-04-01T14:40:54;4.53;;;4.13;;
6723;SDS011;3399;52.530;13.304;2023-04-01T14:46:27;5.37;;;4.87;;
6723;SDS011;3399;52.530;13.304;2023-04-01T14:49:30;4.63;;;4.23;;
6723;SDS011;3399;52.530;13.304;2023-04-01T14:52:14;5.10;;;4.60;;
6723;SDS011;3399;52.530;13.304;2023-04-01T14:54:47;4.27;;;3.87;;
6723;SDS011;3399;52.530;13.304;2023-04-01T14:57:16;5.00;;;4.00;;
6723;SDS011;3399;52.530;13.304;2023-04-01T14:59:53;3.87;;;3.57;;
6723;SDS011;3399;52.530;13.304;2023-04-01T15:06:00;3.37;;;3.17;;
6723;SDS011;3399;52.530;13.304;2023-04-01T15:14:02;5.63;;;3.57;;
6723;SDS011;3399;52.530;13.304;2023-04-01T15:19:51;4.50;;;4.10;;
6723;SDS011;3399;52.530;13.304;2023-04-01T15:25:33;4.90;;;4.40;;
6723;SDS011;3399;52.530;13.304;2023-04-01T15:33:43;5.23;;;4.80;;
6723;SDS011;3399;52.530;13.304;2023-04-01T15:36:25;6.00;;;5.50;;
6723;SDS011;3399;52.530;13.304;2023-04-01T15:41:35;8.83;;;6.63;;
6723;SDS011;3399;52.530;13.304;2023-04-01T15:44:01;6.90;;;6.13;;
6723;SDS011;3399;52.530;13.304;2023-04-01T15:46:47;7.13;;;6.37;;
6723;SDS011;3399;52.530;13.304;2023-04-01T15:49:16;6.63;;;5.90;;
6723;SDS011;3399;52.530;13.304;2023-04-01T15:55:00;6.90;;;6.30;;
6723;SDS011;3399;52.530;13.304;2023-04-01T15:57:56;5.17;;;4.77;;
6723;SDS011;3399;52.530;13.304;2023-04-01T16:08:47;6.30;;;5.70;;
6723;SDS011;3399;52.530;13.304;2023-04-01T16:14:33;5.00;;;4.60;;
6723;SDS011;3399;52.530;13.304;2023-04-01T16:17:05;5.80;;;5.20;;
6723;SDS011;3399;52.530;13.304;2023-04-01T16:20:02;5.87;;;4.57;;
6723;SDS011;3399;52.530;13.304;2023-04-01T16:22:46;5.03;;;4.53;;
6723;SDS011;3399;52.530;13.304;2023-04-01T16:25:21;5.53;;;5.03;;
6723;SDS011;3399;52.530;13.304;2023-04-01T16:31:35;5.73;;;5.07;;
6723;SDS011;3399;52.530;13.304;2023-04-01T16:33:57;4.73;;;4.33;;
6723;SDS011;3399;52.530;13.304;2023-04-01T16:36:54;7.10;;;5.00;;
6723;SDS011;3399;52.530;13.304;2023-04-01T16:47:59;6.53;;;4.23;;
6723;SDS011;3399;52.530;13.304;2023-04-01T16:50:44;4.97;;;4.57;;
6723;SDS011;3399;52.530;13.304;2023-04-01T16:54:11;5.33;;;4.83;;
6723;SDS011;3399;52.530;13.304;2023-04-01T16:56:28;5.87;;;5.27;;
6723;SDS011;3399;52.530;13.304;2023-04-01T16:59:12;5.63;;;4.57;;
6723;SDS011;3399;52.530;13.304;2023-04-01T17:04:47;4.57;;;4.10;;
6723;SDS011;3399;52.530;13.304;2023-04-01T17:16:11;5.23;;;4.47;;
6723;SDS011;3399;52.530;13.304;2023-04-01T17:22:07;5.90;;;4.97;;
6723;SDS011;3399;52.530;13.304;2023-04-01T17:24:50;5.37;;;4.97;;
6723;SDS011;3399;52.530;13.304;2023-04-01T17:27:57;5.77;;;4.93;;
6723;SDS011;3399;52.530;13.304;2023-04-01T17:30:28;5.40;;;4.90;;
6723;SDS011;3399;52.530;13.304;2023-04-01T17:35:52;7.03;;;4.90;;
6723;SDS011;3399;52.530;13.304;2023-04-01T17:38:38;5.20;;;4.67;;
6723;SDS011;3399;52.530;13.304;2023-04-01T17:41:32;5.47;;;4.47;;
6723;SDS011;3399;52.530;13.304;2023-04-01T17:44:14;4.77;;;4.37;;
6723;SDS011;3399;52.530;13.304;2023-04-01T17:50:01;4.90;;;4.43;;
6723;SDS011;3399;52.530;13.304;2023-04-01T17:55:44;4.50;;;4.10;;
6723;SDS011;3399;52.530;13.304;2023-04-01T17:58:32;4.43;;;4.00;;
6723;SDS011;3399;52.530;13.304;2023-04-01T18:01:09;4.13;;;3.83;;
6723;SDS011;3399;52.530;13.304;2023-04-01T18:03:45;4.50;;;4.07;;
6723;SDS011;3399;52.530;13.304;2023-04-01T18:06:36;4.60;;;4.20;;
6723;SDS011;3399;52.530;13.304;2023-04-01T18:09:36;4.87;;;4.30;;
6723;SDS011;3399;52.530;13.304;2023-04-01T18:15:16;7.67;;;4.77;;
6723;SDS011;3399;52.530;13.304;2023-04-01T18:18:05;3.97;;;3.57;;
6723;SDS011;3399;52.530;13.304;2023-04-01T18:20:54;5.80;;;4.67;;
6723;SDS011;3399;52.530;13.304;2023-04-01T18:23:38;5.07;;;4.43;;
6723;SDS011;3399;52.530;13.304;2023-04-01T18:26:18;5.03;;;4.47;;
6723;SDS011;3399;52.530;13.304;2023-04-01T18:31:39;7.27;;;5.33;;
6723;SDS011;3399;52.530;13.304;2023-04-01T18:34:12;7.63;;;5.10;;
6723;SDS011;3399;52.530;13.304;2023-04-01T18:39:53;6.60;;;5.90;;
6723;SDS011;3399;52.530;13.304;2023-04-01T18:45:17;7.57;;;5.30;;
6723;SDS011;3399;52.530;13.304;2023-04-01T18:48:15;10.10;;;6.43;;
6723;SDS011;3399;52.530;13.304;2023-04-01T18:51:01;6.27;;;5.57;;
6723;SDS011;3399;52.530;13.304;2023-04-01T18:56:08;6.40;;;5.67;;
6723;SDS011;3399;52.530;13.304;2023-04-01T19:06:48;8.77;;;6.17;;
6723;SDS011;3399;52.530;13.304;2023-04-01T19:09:45;6.60;;;5.90;;
6723;SDS011;3399;52.530;13.304;2023-04-01T19:15:09;8.07;;;5.90;;
6723;SDS011;3399;52.530;13.304;2023-04-01T19:20:34;7.57;;;6.80;;
6723;SDS011;3399;52.530;13.304;2023-04-01T19:23:15;6.57;;;5.77;;
6723;SDS011;3399;52.530;13.304;2023-04-01T19:26:05;10.47;;;7.27;;
6723;SDS011;3399;52.530;13.304;2023-04-01T19:28:56;7.70;;;6.90;;
6723;SDS011;3399;52.530;13.304;2023-04-01T19:37:05;9.47;;;6.13;;
6723;SDS011;3399;52.530;13.304;2023-04-01T19:40:01;8.03;;;6.57;;
6723;SDS011;3399;52.530;13.304;2023-04-01T19:42:54;10.23;;;7.50;;
6723;SDS011;3399;52.530;13.304;2023-04-01T19:45:37;8.60;;;6.70;;
6723;SDS011;3399;52.530;13.304;2023-04-01T19:48:14;10.43;;;7.70;;
6723;SDS011;3399;52.530;13.304;2023-04-01T19:51:06;13.33;;;8.30;;
6723;SDS011;3399;52.530;13.304;2023-04-01T19:53:50;8.50;;;7.60;;
6723;SDS011;3399;52.530;13.304;2023-04-01T19:56:17;8.60;;;7.77;;
6723;SDS011;3399;52.530;13.304;2023-04-01T20:01:34;8.50;;;7.57;;
6723;SDS011;3399;52.530;13.304;2023-04-01T20:04:36;10.13;;;8.57;;
6723;SDS011;3399;52.530;13.304;2023-04-01T20:10:16;10.97;;;8.97;;
6723;SDS011;3399;52.530;13.304;2023-04-01T20:12:49;13.10;;;10.80;;
6723;SDS011;3399;52.530;13.304;2023-04-01T20:15:54;9.63;;;7.30;;
6723;SDS011;3399;52.530;13.304;2023-04-01T20:18:37;10.07;;;8.20;;
6723;SDS011;3399;52.530;13.304;2023-04-01T20:22:15;10.87;;;7.50;;
6723;SDS011;3399;52.530;13.304;2023-04-01T20:26:39;9.67;;;8.67;;
6723;SDS011;3399;52.530;13.304;2023-04-01T20:31:44;15.10;;;7.83;;
6723;SDS011;3399;52.530;13.304;2023-04-01T20:37:42;9.63;;;8.17;;
6723;SDS011;3399;52.530;13.304;2023-04-01T20:46:18;11.70;;;8.13;;
6723;SDS011;3399;52.530;13.304;2023-04-01T20:48:52;10.77;;;8.47;;
6723;SDS011;3399;52.530;13.304;2023-04-01T20:51:38;10.50;;;8.70;;
6723;SDS011;3399;52.530;13.304;2023-04-01T20:56:52;10.53;;;8.97;;
6723;SDS011;3399;52.530;13.304;2023-04-01T20:59:35;11.43;;;9.60;;
6723;SDS011;3399;52.530;13.304;2023-04-01T21:02:27;13.40;;;10.10;;
6723;SDS011;3399;52.530;13.304;2023-04-01T21:05:11;15.20;;;8.90;;
6723;SDS011;3399;52.530;13.304;2023-04-01T21:07:49;10.23;;;7.80;;
6723;SDS011;3399;52.530;13.304;2023-04-01T21:10:40;10.90;;;8.77;;
6723;SDS011;3399;52.530;13.304;2023-04-01T21:13:29;10.27;;;8.07;;
6723;SDS011;3399;52.530;13.304;2023-04-01T21:19:11;10.37;;;8.80;;
6723;SDS011;3399;52.530;13.304;2023-04-01T21:22:05;10.77;;;8.30;;
6723;SDS011;3399;52.530;13.304;2023-04-01T21:24:56;9.13;;;8.17;;
6723;SDS011;3399;52.530;13.304;2023-04-01T21:27:42;11.87;;;8.53;;
6723;SDS011;3399;52.530;13.304;2023-04-01T21:33:21;12.00;;;8.17;;
6723;SDS011;3399;52.530;13.304;2023-04-01T21:47:22;8.83;;;7.17;;
6723;SDS011;3399;52.530;13.304;2023-04-01T21:50:29;8.40;;;6.37;;
6723;SDS011;3399;52.530;13.304;2023-04-01T21:59:16;9.13;;;7.07;;
6723;SDS011;3399;52.530;13.304;2023-04-01T22:02:01;8.03;;;6.17;;
6723;SDS011;3399;52.530;13.304;2023-04-01T22:04:50;7.80;;;6.27;;
6723;SDS011;3399;52.530;13.304;2023-04-01T22:07:39;7.13;;;6.03;;
6723;SDS011;3399;52.530;13.304;2023-04-01T22:10:19;6.10;;;5.50;;
6723;SDS011;3399;52.530;13.304;2023-04-01T22:12:59;10.57;;;6.40;;
6723;SDS011;3399;52.530;13.304;2023-04-01T22:15:52;12.63;;;7.07;;
6723;SDS011;3399;52.530;13.304;2023-04-01T22:18:32;8.27;;;6.27;;
6723;SDS011;3399;52.530;13.304;2023-04-01T22:21:04;6.13;;;5.53;;
6723;SDS011;3399;52.530;13.304;2023-04-01T22:23:53;8.40;;;6.13;;
6723;SDS011;3399;52.530;13.304;2023-04-01T22:26:48;10.87;;;6.00;;
6723;SDS011;3399;52.530;13.304;2023-04-01T22:32:06;5.97;;;5.40;;
6723;SDS011;3399;52.530;13.304;2023-04-01T22:34:42;6.43;;;5.27;;